Kilsyth, United Kingdom
Current Conditions -  °F | °C
As of 8:50 AM on Saturday 25 Oct 2014 (Local Time) from EGPF Reporting Station
Light Rain Light Rain  
Wind Chill: 50°   Ceiling: 1200
Heat Index: 50°   Visibility: 2.5mi
Dew Point: 48°   Wind: 24mph
Humidity: 94%   Direction: 220°SW
Pressure: 29.65"   Gusts: NA
Location:  55.98°N, 4.06°W
Report Text: EGPF 250750Z AUTO 22021KT 4100 -RA BKN012 OVC023 10/09 Q1004 RERA
Loading
Personal Weather Stations






























Interactive Weather Map
Tropical Storm Tracking
New forecast layout! Learn more

10-Day Weather Forecast

Advertisements
Track Severe Weather on mobile